createdAt,value
2019-02-10T00:00:48.124Z,2.08
2019-02-10T00:03:18.483Z,2.07
2019-02-10T00:05:49.079Z,2.07
2019-02-10T00:08:19.825Z,2.01
2019-02-10T00:10:50.892Z,1.93
2019-02-10T00:13:35.300Z,1.84
2019-02-10T00:16:26.877Z,1.81
2019-02-10T00:18:59.884Z,1.79
2019-02-10T00:21:30.905Z,1.81
2019-02-10T00:24:02.078Z,1.79
2019-02-10T00:26:32.964Z,1.85
2019-02-10T00:29:04.102Z,1.81
2019-02-10T00:31:35.183Z,1.76
2019-02-10T00:34:08.175Z,1.71
2019-02-10T00:36:39.324Z,1.73
2019-02-10T00:39:10.179Z,1.79
2019-02-10T00:41:43.124Z,1.74
2019-02-10T00:44:15.123Z,1.73
2019-02-10T00:46:46.002Z,1.77
2019-02-10T00:49:16.965Z,1.76
2019-02-10T00:51:48.663Z,1.69
2019-02-10T00:54:19.180Z,1.67
2019-02-10T00:56:52.015Z,1.65
2019-02-10T00:59:24.205Z,1.60
2019-02-10T01:01:55.143Z,1.60
2019-02-10T01:04:26.190Z,1.61
2019-02-10T01:06:57.116Z,1.61
2019-02-10T01:09:28.063Z,1.57
2019-02-10T01:11:59.238Z,1.55
2019-02-10T01:14:30.148Z,1.53
2019-02-10T01:17:01.104Z,1.59
2019-02-10T01:19:32.184Z,1.59
2019-02-10T01:22:03.126Z,1.62
2019-02-10T01:24:33.959Z,1.54
2019-02-10T01:27:04.463Z,1.51
2019-02-10T01:29:35.292Z,1.43
2019-02-10T01:32:06.928Z,1.36
2019-02-10T01:34:37.875Z,1.38
2019-02-10T01:37:09.285Z,1.30
2019-02-10T01:39:39.672Z,1.24
2019-02-10T01:42:10.574Z,1.25
2019-02-10T01:44:41.821Z,1.27
2019-02-10T01:47:12.419Z,1.28
2019-02-10T01:49:43.288Z,1.26
2019-02-10T01:52:14.362Z,1.27
2019-02-10T01:54:45.298Z,1.24
2019-02-10T01:57:16.173Z,1.21
2019-02-10T01:59:47.225Z,1.17
2019-02-10T02:02:18.188Z,1.15
2019-02-10T02:04:48.972Z,1.14
2019-02-10T02:07:19.867Z,1.09
2019-02-10T02:09:50.823Z,1.01
2019-02-10T02:12:21.477Z,0.96
2019-02-10T02:14:52.470Z,0.87
2019-02-10T02:17:23.814Z,0.83
2019-02-10T02:19:54.712Z,0.78
2019-02-10T02:22:25.392Z,0.81
2019-02-10T02:24:56.517Z,0.79
2019-02-10T02:27:27.476Z,0.80
2019-02-10T02:29:58.412Z,0.80
2019-02-10T02:32:29.433Z,0.81
2019-02-10T02:35:00.239Z,0.89
2019-02-10T02:37:31.269Z,0.94
2019-02-10T02:40:01.688Z,0.95
2019-02-10T02:42:32.982Z,0.94
2019-02-10T02:45:03.660Z,0.95
2019-02-10T02:47:34.529Z,0.91
2019-02-10T02:50:06.177Z,0.85
2019-02-10T02:52:36.610Z,0.90
2019-02-10T02:55:07.833Z,0.86
2019-02-10T02:57:38.357Z,0.94
2019-02-10T03:00:09.482Z,0.93
2019-02-10T03:02:39.912Z,0.90
2019-02-10T03:05:11.038Z,0.91
2019-02-10T03:07:42.304Z,0.92
2019-02-10T03:10:12.820Z,0.94
2019-02-10T03:12:44.140Z,1.01
2019-02-10T03:15:14.747Z,1.06
2019-02-10T03:17:45.991Z,1.04
2019-02-10T03:20:16.890Z,0.96
2019-02-10T03:22:47.948Z,0.95
2019-02-10T03:25:18.734Z,0.90
2019-02-10T03:27:49.743Z,0.92
2019-02-10T03:30:20.751Z,0.91
2019-02-10T03:32:51.724Z,0.92
2019-02-10T03:35:22.606Z,0.86
2019-02-10T03:37:53.558Z,0.87
2019-02-10T03:40:24.902Z,0.80
2019-02-10T03:42:55.593Z,0.77
2019-02-10T03:45:26.639Z,0.81
2019-02-10T03:47:57.580Z,0.78
2019-02-10T03:50:28.605Z,0.77
2019-02-10T03:52:58.950Z,0.74
2019-02-10T03:55:29.957Z,0.75
2019-02-10T03:58:00.915Z,0.68
2019-02-10T04:00:31.869Z,0.66
2019-02-10T04:03:02.968Z,0.68
2019-02-10T04:05:34.162Z,0.72
2019-02-10T04:08:04.893Z,0.71
2019-02-10T04:10:36.197Z,0.73
2019-02-10T04:13:07.170Z,0.73
2019-02-10T04:15:37.908Z,0.75
2019-02-10T04:18:08.948Z,0.84
2019-02-10T04:20:39.729Z,0.87
2019-02-10T04:23:10.910Z,0.84
2019-02-10T04:25:42.108Z,0.83
2019-02-10T04:28:12.996Z,0.87
2019-02-10T04:30:43.987Z,0.82
2019-02-10T04:33:14.830Z,0.80
2019-02-10T04:35:45.842Z,0.86
2019-02-10T04:38:16.799Z,0.99
2019-02-10T04:40:47.174Z,0.87
2019-02-10T04:43:17.995Z,0.88
2019-02-10T04:45:49.172Z,0.96
2019-02-10T04:48:20.260Z,0.99
2019-02-10T04:50:51.765Z,0.93
2019-02-10T04:53:22.182Z,0.94
2019-02-10T04:56:19.101Z,0.94
2019-02-10T04:58:51.213Z,0.99
2019-02-10T05:01:23.177Z,0.93
2019-02-10T05:03:56.270Z,0.89
2019-02-10T05:06:27.228Z,0.96
2019-02-10T05:08:58.225Z,0.89
2019-02-10T05:11:29.182Z,0.91
2019-02-10T05:14:00.071Z,0.95
2019-02-10T05:16:31.067Z,0.92
2019-02-10T05:19:01.987Z,0.94
2019-02-10T05:21:32.923Z,0.81
2019-02-10T05:24:03.927Z,0.90
2019-02-10T05:26:34.717Z,0.78
2019-02-10T05:29:07.375Z,0.71
2019-02-10T05:31:38.447Z,0.73
2019-02-10T05:34:09.271Z,0.72
2019-02-10T05:36:39.806Z,0.76
2019-02-10T05:39:11.259Z,0.81
2019-02-10T05:41:42.396Z,0.80
2019-02-10T05:44:13.247Z,0.80
2019-02-10T05:46:44.257Z,0.90
2019-02-10T05:49:15.110Z,0.94
2019-02-10T05:51:46.089Z,0.86
2019-02-10T05:54:17.014Z,0.84
2019-02-10T05:56:48.096Z,0.84
2019-02-10T05:59:18.457Z,0.90
2019-02-10T06:02:09.397Z,0.87
2019-02-10T06:04:41.939Z,0.88
2019-02-10T06:07:16.531Z,0.95
2019-02-10T06:09:51.051Z,0.90
2019-02-10T06:12:23.834Z,0.83
2019-02-10T06:14:54.547Z,0.80
2019-02-10T06:17:25.446Z,0.79
2019-02-10T06:19:56.335Z,0.82
2019-02-10T06:22:27.280Z,0.77
2019-02-10T06:24:58.250Z,0.80
2019-02-10T06:27:29.327Z,0.90
2019-02-10T06:30:00.332Z,0.91
2019-02-10T06:32:30.986Z,0.76
2019-02-10T06:35:01.625Z,0.68
2019-02-10T06:37:32.566Z,0.68
2019-02-10T06:40:04.697Z,0.60
2019-02-10T06:42:35.357Z,0.58
2019-02-10T06:45:07.168Z,0.56
2019-02-10T06:47:37.804Z,0.60
2019-02-10T06:50:09.032Z,0.70
2019-02-10T06:52:39.425Z,0.67
2019-02-10T06:55:11.864Z,0.68
2019-02-10T06:57:43.830Z,0.57
2019-02-10T07:00:45.883Z,0.58
2019-02-10T07:03:43.160Z,0.53
2019-02-10T07:06:14.123Z,0.56
2019-02-10T07:08:45.043Z,0.63
2019-02-10T07:11:15.695Z,0.62
2019-02-10T07:13:54.600Z,0.57
2019-02-10T07:16:42.638Z,0.61
2019-02-10T07:19:51.109Z,0.75
2019-02-10T07:23:02.706Z,0.69
2019-02-10T07:25:55.884Z,0.67
2019-02-10T07:28:49.142Z,0.62
2019-02-10T07:31:25.056Z,0.72
2019-02-10T07:34:48.270Z,0.72
2019-02-10T07:37:40.117Z,0.72
2019-02-10T07:41:06.866Z,0.80
2019-02-10T07:44:18.187Z,0.81
2019-02-10T07:47:22.180Z,0.73
2019-02-10T07:50:48.051Z,0.81
2019-02-10T07:53:38.851Z,0.88
2019-02-10T07:56:49.083Z,0.90
2019-02-10T07:59:43.400Z,0.84
2019-02-10T08:02:57.860Z,0.87
2019-02-10T08:05:51.658Z,0.82
2019-02-10T08:09:05.376Z,0.84
2019-02-10T08:12:01.135Z,0.93
2019-02-10T08:14:46.672Z,0.88
2019-02-10T08:18:08.653Z,0.91
2019-02-10T08:20:49.324Z,0.88
2019-02-10T08:23:41.124Z,0.92
2019-02-10T08:26:47.563Z,0.91
2019-02-10T08:29:45.096Z,0.97
2019-02-10T08:32:42.584Z,1.06
2019-02-10T08:35:54.758Z,1.03
2019-02-10T08:38:54.815Z,1.19
2019-02-10T08:42:07.039Z,1.18
2019-02-10T08:45:09.605Z,1.29
2019-02-10T08:48:04.126Z,1.37
2019-02-10T08:51:09.694Z,1.40
2019-02-10T08:53:42.765Z,1.40
2019-02-10T08:56:13.306Z,1.46
2019-02-10T08:58:44.257Z,1.50
2019-02-10T09:01:15.178Z,1.45
2019-02-10T09:03:47.923Z,1.49
2019-02-10T09:06:20.321Z,1.44
2019-02-10T09:08:51.268Z,1.54
2019-02-10T09:11:22.279Z,1.54
2019-02-10T09:13:53.322Z,1.53
2019-02-10T09:16:27.981Z,1.69
2019-02-10T09:19:01.968Z,1.81
2019-02-10T09:21:34.125Z,1.81
2019-02-10T09:24:04.863Z,1.91
2019-02-10T09:26:35.677Z,1.98
2019-02-10T09:29:06.323Z,1.93
2019-02-10T09:31:37.141Z,1.90
2019-02-10T09:34:07.713Z,2.00
2019-02-10T09:36:38.429Z,1.99
2019-02-10T09:39:10.795Z,1.95
2019-02-10T09:41:43.830Z,1.88
2019-02-10T09:44:16.475Z,1.99
2019-02-10T09:46:47.385Z,1.98
2019-02-10T09:49:18.388Z,2.09
2019-02-10T09:51:49.505Z,2.10
2019-02-10T09:54:22.514Z,2.16
2019-02-10T09:56:53.489Z,2.35
2019-02-10T09:59:24.905Z,2.42
2019-02-10T10:01:56.516Z,2.40
2019-02-10T10:04:28.644Z,2.46
2019-02-10T10:06:59.531Z,2.64
2019-02-10T10:09:30.569Z,2.66
2019-02-10T10:12:03.590Z,2.80
2019-02-10T10:14:34.496Z,2.80
2019-02-10T10:17:05.684Z,2.71
2019-02-10T10:19:36.342Z,2.67
2019-02-10T10:22:07.003Z,2.87
2019-02-10T10:24:37.547Z,2.74
2019-02-10T10:27:08.543Z,2.69
2019-02-10T10:29:39.137Z,2.64
2019-02-10T10:32:09.574Z,2.48
2019-02-10T10:34:41.821Z,2.46
2019-02-10T10:37:13.583Z,2.45
2019-02-10T10:39:44.626Z,2.51
2019-02-10T10:42:15.672Z,2.61
2019-02-10T10:44:46.601Z,2.64
2019-02-10T10:47:17.720Z,2.61
2019-02-10T10:49:53.276Z,2.62
2019-02-10T10:52:24.656Z,2.61
2019-02-10T10:54:55.835Z,2.65
2019-02-10T10:57:28.822Z,2.67
2019-02-10T11:00:02.806Z,2.64
2019-02-10T11:02:33.735Z,2.57
2019-02-10T11:05:04.527Z,2.62
2019-02-10T11:07:34.953Z,2.62
2019-02-10T11:10:06.287Z,2.82
2019-02-10T11:12:36.671Z,2.86
2019-02-10T11:15:08.415Z,2.84
2019-02-10T11:17:40.206Z,2.84
2019-02-10T11:20:11.176Z,3.00
2019-02-10T11:22:43.895Z,3.01
2019-02-10T11:25:16.007Z,3.01
2019-02-10T11:27:46.894Z,2.98
2019-02-10T11:30:18.027Z,3.09
2019-02-10T11:32:50.132Z,3.09
2019-02-10T11:35:23.602Z,3.25
2019-02-10T11:37:56.113Z,3.37
2019-02-10T11:40:27.263Z,3.36
2019-02-10T11:43:00.103Z,3.36
2019-02-10T11:45:31.082Z,3.29
2019-02-10T11:48:02.023Z,3.32
2019-02-10T11:50:33.050Z,3.54
2019-02-10T11:53:03.625Z,3.56
2019-02-10T11:55:34.135Z,3.56
2019-02-10T11:58:05.139Z,3.56
2019-02-10T12:00:35.925Z,3.57
2019-02-10T12:03:06.726Z,3.86
2019-02-10T12:05:37.163Z,4.13
2019-02-10T12:08:07.996Z,4.22
2019-02-10T12:10:39.166Z,4.32
2019-02-10T12:13:09.567Z,4.42
2019-02-10T12:15:40.224Z,4.42
2019-02-10T12:18:11.046Z,4.55
2019-02-10T12:20:41.827Z,4.68
2019-02-10T12:23:12.589Z,4.68
2019-02-10T12:25:43.329Z,4.71
2019-02-10T12:28:14.209Z,4.62
2019-02-10T12:30:44.987Z,4.74
2019-02-10T12:33:17.465Z,4.74
2019-02-10T12:35:49.312Z,4.92
2019-02-10T12:38:20.337Z,4.92
2019-02-10T12:40:51.220Z,5.12
2019-02-10T12:43:22.192Z,5.22
2019-02-10T12:45:54.842Z,5.29
2019-02-10T12:48:26.569Z,5.47
2019-02-10T12:50:57.383Z,5.64
2019-02-10T12:53:28.330Z,5.81
2019-02-10T12:56:01.415Z,5.94
2019-02-10T12:58:33.326Z,6.08
2019-02-10T13:01:06.297Z,6.17
2019-02-10T13:03:38.513Z,6.38
2019-02-10T13:06:10.277Z,6.72
2019-02-10T13:08:40.804Z,7.10
2019-02-10T13:11:12.483Z,7.40
2019-02-10T13:13:43.904Z,7.72
2019-02-10T13:16:19.048Z,7.92
2019-02-10T13:18:52.568Z,8.04
2019-02-10T13:21:26.060Z,8.35
2019-02-10T13:23:57.365Z,8.40
2019-02-10T13:26:29.562Z,8.73
2019-02-10T13:29:00.520Z,8.99
2019-02-10T13:31:31.403Z,9.00
2019-02-10T13:34:04.498Z,9.01
2019-02-10T13:36:35.598Z,8.84
2019-02-10T13:39:08.176Z,8.95
2019-02-10T13:41:38.740Z,8.99
2019-02-10T13:44:11.438Z,9.13
2019-02-10T13:46:43.491Z,9.29
2019-02-10T13:49:15.844Z,9.40
2019-02-10T13:51:48.522Z,9.64
2019-02-10T13:54:20.788Z,9.58
2019-02-10T13:56:53.556Z,9.42
2019-02-10T13:59:24.661Z,9.10
2019-02-10T14:01:55.669Z,9.07
2019-02-10T14:04:26.596Z,9.05
2019-02-10T14:06:57.697Z,8.96
2019-02-10T14:09:29.614Z,8.75
2019-02-10T14:12:01.643Z,8.70
2019-02-10T14:14:32.661Z,8.62
2019-02-10T14:17:03.690Z,8.69
2019-02-10T14:19:34.638Z,8.68
2019-02-10T14:22:05.529Z,8.70
2019-02-10T14:24:36.053Z,8.78
2019-02-10T14:27:06.600Z,8.97
2019-02-10T14:29:37.718Z,9.11
2019-02-10T14:32:09.108Z,9.42
2019-02-10T14:34:39.531Z,9.51
2019-02-10T14:37:10.122Z,9.56
2019-02-10T14:39:40.633Z,9.71
2019-02-10T14:42:11.726Z,9.71
2019-02-10T14:44:42.485Z,9.71
2019-02-10T14:47:13.213Z,9.81
2019-02-10T14:49:43.790Z,9.95
2019-02-10T14:52:14.892Z,10.13
2019-02-10T14:54:45.677Z,10.29
2019-02-10T14:57:16.256Z,10.33
2019-02-10T14:59:46.909Z,10.14
2019-02-10T15:02:17.855Z,10.06
2019-02-10T15:04:48.907Z,9.99
2019-02-10T15:07:25.172Z,9.96
2019-02-10T15:09:52.955Z,9.73
2019-02-10T15:12:23.860Z,9.40
2019-02-10T15:14:55.032Z,9.33
2019-02-10T15:17:25.972Z,9.17
2019-02-10T15:19:56.896Z,9.11
2019-02-10T15:22:29.961Z,9.00
2019-02-10T15:25:01.043Z,9.02
2019-02-10T15:27:32.053Z,9.01
2019-02-10T15:30:05.197Z,8.95
2019-02-10T15:32:36.087Z,8.89
2019-02-10T15:35:06.891Z,8.70
2019-02-10T15:37:38.048Z,8.50
2019-02-10T15:40:09.178Z,8.37
2019-02-10T15:42:40.624Z,8.22
2019-02-10T15:45:13.069Z,8.10
2019-02-10T15:47:44.123Z,7.99
2019-02-10T15:50:15.109Z,7.96
2019-02-10T15:52:47.159Z,8.11
2019-02-10T15:55:19.349Z,8.13
2019-02-10T15:57:50.446Z,7.95
2019-02-10T16:00:23.373Z,7.70
2019-02-10T16:02:55.118Z,7.44
2019-02-10T16:05:26.176Z,7.28
2019-02-10T16:07:59.080Z,7.13
2019-02-10T16:10:31.357Z,6.90
2019-02-10T16:13:04.278Z,6.75
2019-02-10T16:15:35.238Z,6.58
2019-02-10T16:18:07.210Z,6.41
2019-02-10T16:20:39.299Z,6.25
2019-02-10T16:23:10.299Z,6.12
2019-02-10T16:25:40.976Z,6.00
2019-02-10T16:28:12.661Z,5.87
2019-02-10T16:30:44.325Z,5.74
2019-02-10T16:33:16.341Z,5.66
2019-02-10T16:35:47.343Z,5.59
2019-02-10T16:38:18.201Z,5.53
2019-02-10T16:40:49.067Z,5.49
2019-02-10T16:43:19.753Z,5.43
2019-02-10T16:45:54.410Z,5.32
2019-02-10T16:48:27.384Z,5.33
2019-02-10T16:50:58.368Z,5.29
2019-02-10T16:53:32.109Z,5.18
2019-02-10T16:56:05.246Z,5.10
2019-02-10T16:58:37.314Z,5.04
2019-02-10T17:01:10.473Z,5.03
2019-02-10T17:03:41.043Z,5.04
2019-02-10T17:06:12.280Z,5.06
2019-02-10T17:08:43.169Z,5.06
2019-02-10T17:11:14.498Z,4.97
2019-02-10T17:13:47.478Z,4.88
2019-02-10T17:16:18.561Z,4.89
2019-02-10T17:18:51.524Z,4.91
2019-02-10T17:21:22.497Z,4.96
2019-02-10T17:23:53.700Z,5.04
2019-02-10T17:26:24.598Z,5.00
2019-02-10T17:28:55.730Z,5.08
2019-02-10T17:31:28.518Z,5.08
2019-02-10T17:33:59.635Z,4.95
2019-02-10T17:36:30.718Z,4.88
2019-02-10T17:39:01.576Z,4.86
2019-02-10T17:41:39.268Z,4.88
2019-02-10T17:44:11.739Z,5.08
2019-02-10T17:46:44.803Z,5.09
2019-02-10T17:49:16.638Z,5.19
2019-02-10T17:51:47.535Z,5.12
2019-02-10T17:54:19.268Z,5.07
2019-02-10T17:56:49.727Z,5.03
2019-02-10T17:59:21.630Z,4.84
2019-02-10T18:01:53.860Z,4.71
2019-02-10T18:04:24.667Z,4.70
2019-02-10T18:06:55.657Z,4.66
2019-02-10T18:09:26.860Z,4.75
2019-02-10T18:11:59.796Z,4.75
2019-02-10T18:14:57.831Z,4.91
2019-02-10T18:17:53.609Z,4.92
2019-02-10T18:20:44.531Z,4.83
2019-02-10T18:23:33.044Z,4.90
2019-02-10T18:26:24.587Z,4.94
2019-02-10T18:29:13.125Z,4.92
2019-02-10T18:32:02.699Z,5.05
2019-02-10T18:34:43.950Z,4.90
2019-02-10T18:37:37.342Z,4.91
2019-02-10T18:40:27.396Z,4.89
2019-02-10T18:43:12.201Z,4.92
2019-02-10T18:45:57.581Z,4.97
2019-02-10T18:48:50.697Z,4.87
2019-02-10T18:51:50.920Z,5.03
2019-02-10T18:54:33.454Z,5.07
2019-02-10T18:57:31.749Z,4.97
2019-02-10T19:00:24.183Z,5.02
2019-02-10T19:03:04.124Z,5.13
2019-02-10T19:05:46.750Z,5.01
2019-02-10T19:08:32.074Z,4.99
2019-02-10T19:11:21.459Z,5.03
2019-02-10T19:14:01.850Z,4.98
2019-02-10T19:16:58.675Z,5.00
2019-02-10T19:19:42.448Z,4.97
2019-02-10T19:22:32.423Z,5.07
2019-02-10T19:25:19.773Z,5.02
2019-02-10T19:28:03.685Z,5.03
2019-02-10T19:31:10.984Z,5.11
2019-02-10T19:33:58.732Z,5.17
2019-02-10T19:36:43.328Z,5.07
2019-02-10T19:39:32.471Z,5.21
2019-02-10T19:42:19.180Z,5.31
2019-02-10T19:45:09.876Z,5.16
2019-02-10T19:47:57.920Z,5.17
2019-02-10T19:50:48.825Z,5.18
2019-02-10T19:53:27.301Z,5.15
2019-02-10T19:56:14.058Z,5.01
2019-02-10T19:59:03.406Z,4.91
2019-02-10T20:02:07.193Z,4.88
2019-02-10T20:05:02.015Z,4.96
2019-02-10T20:07:50.524Z,4.99
2019-02-10T20:10:41.049Z,5.00
2019-02-10T20:13:28.003Z,4.87
2019-02-10T20:16:07.283Z,4.88
2019-02-10T20:19:00.171Z,4.83
2019-02-10T20:21:54.840Z,4.77
2019-02-10T20:24:44.217Z,4.65
2019-02-10T20:27:38.688Z,4.78
2019-02-10T20:30:19.898Z,4.75
2019-02-10T20:33:21.854Z,4.73
2019-02-10T20:36:02.624Z,4.71
2019-02-10T20:38:50.512Z,4.65
2019-02-10T20:41:49.027Z,4.73
2019-02-10T20:44:43.628Z,4.62
2019-02-10T20:47:42.392Z,4.62
2019-02-10T20:50:37.009Z,4.61
2019-02-10T20:53:24.959Z,4.61
2019-02-10T20:56:15.289Z,4.54
2019-02-10T20:59:04.660Z,4.50
2019-02-10T21:01:55.303Z,4.62
2019-02-10T21:04:43.514Z,4.59
2019-02-10T21:07:42.507Z,4.49
2019-02-10T21:10:44.529Z,4.52
2019-02-10T21:13:50.408Z,4.58
2019-02-10T21:16:49.947Z,4.60
2019-02-10T21:19:40.349Z,4.49
2019-02-10T21:22:27.827Z,4.53
2019-02-10T21:25:13.442Z,4.69
2019-02-10T21:28:12.483Z,4.70
2019-02-10T21:31:01.810Z,4.76
2019-02-10T21:33:51.981Z,4.77
2019-02-10T21:36:36.266Z,4.76
2019-02-10T21:39:22.592Z,4.83
2019-02-10T21:42:17.578Z,4.88
2019-02-10T21:45:15.281Z,4.89
2019-02-10T21:48:05.133Z,4.87
2019-02-10T21:50:37.788Z,4.83
2019-02-10T21:53:10.713Z,4.91
2019-02-10T21:55:41.199Z,4.95
2019-02-10T21:58:12.716Z,5.01
2019-02-10T22:00:44.663Z,4.72
2019-02-10T22:03:17.627Z,4.54
2019-02-10T22:05:50.686Z,4.21
2019-02-10T22:08:21.743Z,4.19
2019-02-10T22:10:52.837Z,4.12
2019-02-10T22:13:23.747Z,4.07
2019-02-10T22:15:56.850Z,3.98
2019-02-10T22:18:28.774Z,3.98
2019-02-10T22:21:02.035Z,3.86
2019-02-10T22:23:32.715Z,3.83
2019-02-10T22:26:03.853Z,3.83
2019-02-10T22:28:35.853Z,3.89
2019-02-10T22:31:07.788Z,3.90
2019-02-10T22:33:38.815Z,3.98
2019-02-10T22:36:09.776Z,4.02
2019-02-10T22:38:40.635Z,4.05
2019-02-10T22:41:11.598Z,4.16
2019-02-10T22:43:42.005Z,4.33
2019-02-10T22:46:12.866Z,4.33
2019-02-10T22:48:43.778Z,4.59
2019-02-10T22:51:14.620Z,4.59
2019-02-10T22:53:45.355Z,4.80
2019-02-10T22:56:15.992Z,4.80
2019-02-10T22:58:46.870Z,4.80
2019-02-10T23:01:17.620Z,4.89
2019-02-10T23:03:49.148Z,5.02
2019-02-10T23:06:19.530Z,5.18
2019-02-10T23:08:50.142Z,5.25
2019-02-10T23:11:20.523Z,5.34
2019-02-10T23:13:50.917Z,5.37
2019-02-10T23:16:22.661Z,5.31
2019-02-10T23:18:53.473Z,5.24
2019-02-10T23:21:24.176Z,5.25
2019-02-10T23:23:55.281Z,5.32
2019-02-10T23:26:26.001Z,5.39
2019-02-10T23:28:57.070Z,5.38
2019-02-10T23:31:27.978Z,5.53
2019-02-10T23:33:59.108Z,5.47
2019-02-10T23:36:30.090Z,5.54
2019-02-10T23:39:01.024Z,5.55
2019-02-10T23:41:31.992Z,5.61
2019-02-10T23:44:02.899Z,5.68
2019-02-10T23:46:33.823Z,5.69
2019-02-10T23:49:04.227Z,5.85
2019-02-10T23:51:35.246Z,6.06
2019-02-10T23:54:06.241Z,6.07
2019-02-10T23:56:37.163Z,6.15
2019-02-10T23:59:08.264Z,6.18
